sensor_id;sensor_type;location;lat;lon;timestamp;temperature;humidity
9973;DHT22;5027;53.560;10.062;2023-08-31T00:01:17;19.00;99.90
9973;DHT22;5027;53.560;10.062;2023-08-31T00:03:44;19.00;99.90
9973;DHT22;5027;53.560;10.062;2023-08-31T00:06:11;19.00;99.90
9973;DHT22;5027;53.560;10.062;2023-08-31T00:08:38;19.10;99.90
9973;DHT22;5027;53.560;10.062;2023-08-31T00:11:05;19.00;99.90
9973;DHT22;5027;53.560;10.062;2023-08-31T00:13:31;19.00;99.90
9973;DHT22;5027;53.560;10.062;2023-08-31T00:15:59;19.00;99.90
9973;DHT22;5027;53.560;10.062;2023-08-31T00:18:26;19.10;99.90
9973;DHT22;5027;53.560;10.062;2023-08-31T00:20:53;19.00;99.90
9973;DHT22;5027;53.560;10.062;2023-08-31T00:23:20;19.10;99.90
9973;DHT22;5027;53.560;10.062;2023-08-31T00:25:47;19.10;99.90
9973;DHT22;5027;53.560;10.062;2023-08-31T00:28:19;19.10;99.90
9973;DHT22;5027;53.560;10.062;2023-08-31T00:30:46;19.00;99.90
9973;DHT22;5027;53.560;10.062;2023-08-31T00:33:14;19.00;99.90
9973;DHT22;5027;53.560;10.062;2023-08-31T00:35:41;19.00;99.90
9973;DHT22;5027;53.560;10.062;2023-08-31T00:38:13;19.00;99.90
9973;DHT22;5027;53.560;10.062;2023-08-31T00:40:44;18.90;99.90
9973;DHT22;5027;53.560;10.062;2023-08-31T00:43:14;18.80;99.90
9973;DHT22;5027;53.560;10.062;2023-08-31T00:45:43;18.90;99.90
9973;DHT22;5027;53.560;10.062;2023-08-31T00:48:11;18.80;99.90
9973;DHT22;5027;53.560;10.062;2023-08-31T00:50:41;18.90;99.90
9973;DHT22;5027;53.560;10.062;2023-08-31T00:53:08;18.90;99.90
9973;DHT22;5027;53.560;10.062;2023-08-31T00:55:35;18.80;99.90
9973;DHT22;5027;53.560;10.062;2023-08-31T00:58:02;18.80;99.90
9973;DHT22;5027;53.560;10.062;2023-08-31T01:08:59;18.90;99.90
9973;DHT22;5027;53.560;10.062;2023-08-31T01:11:51;18.80;99.90
9973;DHT22;5027;53.560;10.062;2023-08-31T01:14:24;18.70;99.90
9973;DHT22;5027;53.560;10.062;2023-08-31T01:16:53;18.70;99.90
9973;DHT22;5027;53.560;10.062;2023-08-31T01:19:51;18.90;99.90
9973;DHT22;5027;53.560;10.062;2023-08-31T01:22:29;18.80;99.90
9973;DHT22;5027;53.560;10.062;2023-08-31T01:24:59;18.70;99.90
9973;DHT22;5027;53.560;10.062;2023-08-31T01:27:31;18.60;99.90
9973;DHT22;5027;53.560;10.062;2023-08-31T01:29:58;18.60;99.90
9973;DHT22;5027;53.560;10.062;2023-08-31T01:32:26;18.50;99.90
9973;DHT22;5027;53.560;10.062;2023-08-31T01:34:53;18.60;99.90
9973;DHT22;5027;53.560;10.062;2023-08-31T01:37:34;18.60;99.90
9973;DHT22;5027;53.560;10.062;2023-08-31T01:40:11;18.60;99.90
9973;DHT22;5027;53.560;10.062;2023-08-31T01:42:39;18.60;99.90
9973;DHT22;5027;53.560;10.062;2023-08-31T01:45:07;18.60;99.90
9973;DHT22;5027;53.560;10.062;2023-08-31T01:47:35;18.50;99.90
9973;DHT22;5027;53.560;10.062;2023-08-31T01:50:02;18.60;99.90
9973;DHT22;5027;53.560;10.062;2023-08-31T01:52:29;18.60;99.90
9973;DHT22;5027;53.560;10.062;2023-08-31T01:54:57;18.50;99.90
9973;DHT22;5027;53.560;10.062;2023-08-31T01:57:24;18.60;99.90
9973;DHT22;5027;53.560;10.062;2023-08-31T02:00:02;18.60;99.90
9973;DHT22;5027;53.560;10.062;2023-08-31T02:02:40;18.50;99.90
9973;DHT22;5027;53.560;10.062;2023-08-31T02:05:07;18.50;99.90
9973;DHT22;5027;53.560;10.062;2023-08-31T02:07:34;18.50;99.90
9973;DHT22;5027;53.560;10.062;2023-08-31T02:10:01;18.60;99.90
9973;DHT22;5027;53.560;10.062;2023-08-31T02:12:28;18.50;99.90
9973;DHT22;5027;53.560;10.062;2023-08-31T02:14:55;18.50;99.90
9973;DHT22;5027;53.560;10.062;2023-08-31T02:17:22;18.40;99.90
9973;DHT22;5027;53.560;10.062;2023-08-31T02:19:48;18.40;99.90
9973;DHT22;5027;53.560;10.062;2023-08-31T02:22:15;18.50;99.90
9973;DHT22;5027;53.560;10.062;2023-08-31T02:24:42;18.50;99.90
9973;DHT22;5027;53.560;10.062;2023-08-31T02:27:10;18.50;99.90
9973;DHT22;5027;53.560;10.062;2023-08-31T02:29:37;18.50;99.90
9973;DHT22;5027;53.560;10.062;2023-08-31T02:32:05;18.50;99.90
9973;DHT22;5027;53.560;10.062;2023-08-31T02:34:32;18.50;99.90
9973;DHT22;5027;53.560;10.062;2023-08-31T02:36:59;18.50;99.90
9973;DHT22;5027;53.560;10.062;2023-08-31T02:39:27;18.50;99.90
9973;DHT22;5027;53.560;10.062;2023-08-31T02:41:54;18.50;99.90
9973;DHT22;5027;53.560;10.062;2023-08-31T02:44:20;18.50;99.90
9973;DHT22;5027;53.560;10.062;2023-08-31T02:51:06;18.40;99.90
9973;DHT22;5027;53.560;10.062;2023-08-31T02:53:33;18.40;99.90
9973;DHT22;5027;53.560;10.062;2023-08-31T02:56:00;18.40;99.90
9973;DHT22;5027;53.560;10.062;2023-08-31T02:58:29;18.40;99.90
9973;DHT22;5027;53.560;10.062;2023-08-31T03:00:55;18.30;99.90
9973;DHT22;5027;53.560;10.062;2023-08-31T03:03:32;18.30;99.90
9973;DHT22;5027;53.560;10.062;2023-08-31T03:06:00;18.10;99.90
9973;DHT22;5027;53.560;10.062;2023-08-31T03:08:27;18.00;99.90
9973;DHT22;5027;53.560;10.062;2023-08-31T03:10:56;18.00;99.90
9973;DHT22;5027;53.560;10.062;2023-08-31T03:13:23;18.10;99.90
9973;DHT22;5027;53.560;10.062;2023-08-31T03:15:49;18.10;99.90
9973;DHT22;5027;53.560;10.062;2023-08-31T03:18:16;18.10;99.90
9973;DHT22;5027;53.560;10.062;2023-08-31T03:20:43;18.00;99.90
9973;DHT22;5027;53.560;10.062;2023-08-31T03:23:10;17.90;99.90
9973;DHT22;5027;53.560;10.062;2023-08-31T03:25:38;17.90;99.90
9973;DHT22;5027;53.560;10.062;2023-08-31T03:28:06;17.90;99.90
9973;DHT22;5027;53.560;10.062;2023-08-31T03:30:34;18.00;99.90
9973;DHT22;5027;53.560;10.062;2023-08-31T03:33:01;18.00;99.90
9973;DHT22;5027;53.560;10.062;2023-08-31T03:35:28;18.10;99.90
9973;DHT22;5027;53.560;10.062;2023-08-31T03:37:58;18.10;99.90
9973;DHT22;5027;53.560;10.062;2023-08-31T03:40:26;18.00;99.90
9973;DHT22;5027;53.560;10.062;2023-08-31T03:42:53;18.00;99.90
9973;DHT22;5027;53.560;10.062;2023-08-31T03:45:20;18.00;99.90
9973;DHT22;5027;53.560;10.062;2023-08-31T03:47:47;18.10;99.90
9973;DHT22;5027;53.560;10.062;2023-08-31T03:50:14;18.10;99.90
9973;DHT22;5027;53.560;10.062;2023-08-31T03:52:41;18.00;99.90
9973;DHT22;5027;53.560;10.062;2023-08-31T03:55:08;18.00;99.90
9973;DHT22;5027;53.560;10.062;2023-08-31T03:57:35;18.00;99.90
9973;DHT22;5027;53.560;10.062;2023-08-31T04:00:11;18.00;99.90
9973;DHT22;5027;53.560;10.062;2023-08-31T04:02:43;18.00;99.90
9973;DHT22;5027;53.560;10.062;2023-08-31T04:05:13;17.90;99.90
9973;DHT22;5027;53.560;10.062;2023-08-31T04:07:43;17.90;99.90
9973;DHT22;5027;53.560;10.062;2023-08-31T04:10:09;18.00;99.90
9973;DHT22;5027;53.560;10.062;2023-08-31T04:12:36;18.00;99.90
9973;DHT22;5027;53.560;10.062;2023-08-31T04:15:03;18.00;99.90
9973;DHT22;5027;53.560;10.062;2023-08-31T04:17:31;18.00;99.90
9973;DHT22;5027;53.560;10.062;2023-08-31T04:19:58;18.10;99.90
9973;DHT22;5027;53.560;10.062;2023-08-31T04:22:26;18.10;99.90
9973;DHT22;5027;53.560;10.062;2023-08-31T04:24:53;18.00;99.90
9973;DHT22;5027;53.560;10.062;2023-08-31T04:27:20;18.00;99.90
9973;DHT22;5027;53.560;10.062;2023-08-31T04:29:47;17.80;99.90
9973;DHT22;5027;53.560;10.062;2023-08-31T04:32:14;17.90;99.90
9973;DHT22;5027;53.560;10.062;2023-08-31T04:34:41;17.80;99.90
9973;DHT22;5027;53.560;10.062;2023-08-31T04:37:08;17.90;99.90
9973;DHT22;5027;53.560;10.062;2023-08-31T04:39:34;17.80;99.90
9973;DHT22;5027;53.560;10.062;2023-08-31T04:42:01;17.70;99.90
9973;DHT22;5027;53.560;10.062;2023-08-31T04:44:29;17.70;99.90
9973;DHT22;5027;53.560;10.062;2023-08-31T04:46:55;17.70;99.90
9973;DHT22;5027;53.560;10.062;2023-08-31T04:49:22;17.80;99.90
9973;DHT22;5027;53.560;10.062;2023-08-31T04:51:49;17.80;99.90
9973;DHT22;5027;53.560;10.062;2023-08-31T04:54:16;17.80;99.90
9973;DHT22;5027;53.560;10.062;2023-08-31T04:56:42;17.90;99.90
9973;DHT22;5027;53.560;10.062;2023-08-31T04:59:09;17.90;99.90
9973;DHT22;5027;53.560;10.062;2023-08-31T05:01:36;17.90;99.90
9973;DHT22;5027;53.560;10.062;2023-08-31T05:04:03;17.90;99.90
9973;DHT22;5027;53.560;10.062;2023-08-31T05:06:30;17.70;99.90
9973;DHT22;5027;53.560;10.062;2023-08-31T05:08:56;17.70;99.90
9973;DHT22;5027;53.560;10.062;2023-08-31T05:11:23;17.70;99.90
9973;DHT22;5027;53.560;10.062;2023-08-31T05:13:50;17.70;99.90
9973;DHT22;5027;53.560;10.062;2023-08-31T05:16:16;17.70;99.90
9973;DHT22;5027;53.560;10.062;2023-08-31T05:18:43;17.80;99.90
9973;DHT22;5027;53.560;10.062;2023-08-31T05:21:10;17.60;99.90
9973;DHT22;5027;53.560;10.062;2023-08-31T05:23:37;17.70;99.90
9973;DHT22;5027;53.560;10.062;2023-08-31T05:26:03;17.60;99.90
9973;DHT22;5027;53.560;10.062;2023-08-31T05:28:30;17.70;99.90
9973;DHT22;5027;53.560;10.062;2023-08-31T05:31:00;17.70;99.90
9973;DHT22;5027;53.560;10.062;2023-08-31T05:33:27;17.70;99.90
9973;DHT22;5027;53.560;10.062;2023-08-31T05:35:55;17.70;99.90
9973;DHT22;5027;53.560;10.062;2023-08-31T05:38:22;17.60;99.90
9973;DHT22;5027;53.560;10.062;2023-08-31T05:40:50;17.70;99.90
9973;DHT22;5027;53.560;10.062;2023-08-31T05:43:16;17.70;99.90
9973;DHT22;5027;53.560;10.062;2023-08-31T05:45:43;17.80;99.90
9973;DHT22;5027;53.560;10.062;2023-08-31T05:48:10;17.80;99.90
9973;DHT22;5027;53.560;10.062;2023-08-31T05:50:37;17.90;99.90
9973;DHT22;5027;53.560;10.062;2023-08-31T05:53:04;17.80;99.90
9973;DHT22;5027;53.560;10.062;2023-08-31T05:55:32;17.90;99.90
9973;DHT22;5027;53.560;10.062;2023-08-31T05:57:59;18.10;99.90
9973;DHT22;5027;53.560;10.062;2023-08-31T06:00:28;18.00;99.90
9973;DHT22;5027;53.560;10.062;2023-08-31T06:02:55;18.00;99.90
9973;DHT22;5027;53.560;10.062;2023-08-31T06:05:22;17.90;99.90
9973;DHT22;5027;53.560;10.062;2023-08-31T06:07:48;17.90;99.90
9973;DHT22;5027;53.560;10.062;2023-08-31T06:10:15;17.80;99.90
9973;DHT22;5027;53.560;10.062;2023-08-31T06:12:42;17.80;99.90
9973;DHT22;5027;53.560;10.062;2023-08-31T06:15:09;17.70;99.90
9973;DHT22;5027;53.560;10.062;2023-08-31T06:17:36;17.80;99.90
9973;DHT22;5027;53.560;10.062;2023-08-31T06:20:03;17.80;99.90
9973;DHT22;5027;53.560;10.062;2023-08-31T06:22:32;17.90;99.90
9973;DHT22;5027;53.560;10.062;2023-08-31T06:24:58;17.90;99.90
9973;DHT22;5027;53.560;10.062;2023-08-31T06:27:26;17.80;99.90
9973;DHT22;5027;53.560;10.062;2023-08-31T06:29:53;17.80;99.90
9973;DHT22;5027;53.560;10.062;2023-08-31T06:32:19;17.90;99.90
9973;DHT22;5027;53.560;10.062;2023-08-31T06:34:46;17.90;99.90
9973;DHT22;5027;53.560;10.062;2023-08-31T06:37:13;17.70;99.90
9973;DHT22;5027;53.560;10.062;2023-08-31T06:39:40;17.70;99.90
9973;DHT22;5027;53.560;10.062;2023-08-31T06:42:07;17.80;99.90
9973;DHT22;5027;53.560;10.062;2023-08-31T06:44:37;17.80;99.90
9973;DHT22;5027;53.560;10.062;2023-08-31T06:47:04;17.90;99.90
9973;DHT22;5027;53.560;10.062;2023-08-31T06:49:31;18.00;99.90
9973;DHT22;5027;53.560;10.062;2023-08-31T06:52:00;18.00;99.90
9973;DHT22;5027;53.560;10.062;2023-08-31T06:54:27;18.00;99.90
9973;DHT22;5027;53.560;10.062;2023-08-31T06:56:53;17.90;99.90
9973;DHT22;5027;53.560;10.062;2023-08-31T06:59:20;17.70;99.90
9973;DHT22;5027;53.560;10.062;2023-08-31T07:01:47;17.60;99.90
9973;DHT22;5027;53.560;10.062;2023-08-31T07:04:14;17.80;99.90
9973;DHT22;5027;53.560;10.062;2023-08-31T07:06:40;17.90;99.90
9973;DHT22;5027;53.560;10.062;2023-08-31T07:09:07;17.80;99.90
9973;DHT22;5027;53.560;10.062;2023-08-31T07:11:35;18.00;99.90
9973;DHT22;5027;53.560;10.062;2023-08-31T07:14:13;17.90;99.90
9973;DHT22;5027;53.560;10.062;2023-08-31T07:16:49;18.00;99.90
9973;DHT22;5027;53.560;10.062;2023-08-31T07:19:16;18.20;99.90
9973;DHT22;5027;53.560;10.062;2023-08-31T07:21:43;18.20;99.90
9973;DHT22;5027;53.560;10.062;2023-08-31T07:24:10;18.20;99.90
9973;DHT22;5027;53.560;10.062;2023-08-31T07:26:36;18.30;99.90
9973;DHT22;5027;53.560;10.062;2023-08-31T07:29:03;18.30;99.90
9973;DHT22;5027;53.560;10.062;2023-08-31T07:31:31;18.30;99.90
9973;DHT22;5027;53.560;10.062;2023-08-31T07:33:58;18.20;99.90
9973;DHT22;5027;53.560;10.062;2023-08-31T07:36:25;18.20;99.90
9973;DHT22;5027;53.560;10.062;2023-08-31T07:38:52;18.30;99.90
9973;DHT22;5027;53.560;10.062;2023-08-31T07:41:18;18.40;99.90
9973;DHT22;5027;53.560;10.062;2023-08-31T07:43:45;18.40;99.90
9973;DHT22;5027;53.560;10.062;2023-08-31T07:46:30;18.40;99.90
9973;DHT22;5027;53.560;10.062;2023-08-31T07:48:56;18.40;99.90
9973;DHT22;5027;53.560;10.062;2023-08-31T07:51:23;18.30;99.90
9973;DHT22;5027;53.560;10.062;2023-08-31T07:53:51;18.20;99.90
9973;DHT22;5027;53.560;10.062;2023-08-31T07:56:17;18.20;99.90
9973;DHT22;5027;53.560;10.062;2023-08-31T07:58:44;18.20;99.90
9973;DHT22;5027;53.560;10.062;2023-08-31T08:01:11;18.30;99.90
9973;DHT22;5027;53.560;10.062;2023-08-31T08:03:38;18.30;99.90
9973;DHT22;5027;53.560;10.062;2023-08-31T08:06:05;18.10;99.90
9973;DHT22;5027;53.560;10.062;2023-08-31T08:08:31;18.20;99.90
9973;DHT22;5027;53.560;10.062;2023-08-31T08:10:59;18.30;99.90
9973;DHT22;5027;53.560;10.062;2023-08-31T08:13:26;18.20;99.90
9973;DHT22;5027;53.560;10.062;2023-08-31T08:15:53;18.10;99.90
9973;DHT22;5027;53.560;10.062;2023-08-31T08:18:19;18.20;99.90
9973;DHT22;5027;53.560;10.062;2023-08-31T08:20:53;18.30;99.90
9973;DHT22;5027;53.560;10.062;2023-08-31T08:23:19;18.20;99.90
9973;DHT22;5027;53.560;10.062;2023-08-31T08:25:48;18.30;99.90
9973;DHT22;5027;53.560;10.062;2023-08-31T08:28:15;18.20;99.90
9973;DHT22;5027;53.560;10.062;2023-08-31T08:30:41;18.20;99.90
9973;DHT22;5027;53.560;10.062;2023-08-31T08:33:09;18.30;99.90
9973;DHT22;5027;53.560;10.062;2023-08-31T08:35:37;18.20;99.90
9973;DHT22;5027;53.560;10.062;2023-08-31T08:38:05;18.20;99.90
9973;DHT22;5027;53.560;10.062;2023-08-31T08:40:32;18.00;99.90
9973;DHT22;5027;53.560;10.062;2023-08-31T08:43:01;18.00;99.90
9973;DHT22;5027;53.560;10.062;2023-08-31T08:45:36;18.10;99.90
9973;DHT22;5027;53.560;10.062;2023-08-31T08:48:05;18.30;99.90
9973;DHT22;5027;53.560;10.062;2023-08-31T08:50:34;18.20;99.90
9973;DHT22;5027;53.560;10.062;2023-08-31T08:53:04;18.10;99.90
9973;DHT22;5027;53.560;10.062;2023-08-31T08:55:32;18.20;99.90
9973;DHT22;5027;53.560;10.062;2023-08-31T08:57:59;18.30;99.90
9973;DHT22;5027;53.560;10.062;2023-08-31T09:00:27;18.20;99.90
9973;DHT22;5027;53.560;10.062;2023-08-31T09:02:54;18.30;99.90
9973;DHT22;5027;53.560;10.062;2023-08-31T09:05:22;18.40;99.90
9973;DHT22;5027;53.560;10.062;2023-08-31T09:08:09;18.50;99.90
9973;DHT22;5027;53.560;10.062;2023-08-31T09:10:45;18.50;99.90
9973;DHT22;5027;53.560;10.062;2023-08-31T09:13:13;18.50;99.90
9973;DHT22;5027;53.560;10.062;2023-08-31T09:18:23;18.60;99.90
9973;DHT22;5027;53.560;10.062;2023-08-31T09:20:50;18.70;99.90
9973;DHT22;5027;53.560;10.062;2023-08-31T09:23:18;18.60;99.90
9973;DHT22;5027;53.560;10.062;2023-08-31T09:25:46;18.50;99.90
9973;DHT22;5027;53.560;10.062;2023-08-31T09:28:20;18.50;99.90
9973;DHT22;5027;53.560;10.062;2023-08-31T09:30:48;18.50;99.90
9973;DHT22;5027;53.560;10.062;2023-08-31T09:33:17;18.60;99.90
9973;DHT22;5027;53.560;10.062;2023-08-31T09:35:57;18.50;99.90
9973;DHT22;5027;53.560;10.062;2023-08-31T09:38:26;18.30;99.90
9973;DHT22;5027;53.560;10.062;2023-08-31T09:41:03;18.30;99.90
9973;DHT22;5027;53.560;10.062;2023-08-31T09:43:31;18.50;99.90
9973;DHT22;5027;53.560;10.062;2023-08-31T09:45:58;18.60;99.90
9973;DHT22;5027;53.560;10.062;2023-08-31T09:48:29;18.70;99.90
9973;DHT22;5027;53.560;10.062;2023-08-31T09:50:57;18.90;99.90
9973;DHT22;5027;53.560;10.062;2023-08-31T09:53:24;19.10;99.90
9973;DHT22;5027;53.560;10.062;2023-08-31T09:55:54;19.10;99.90
9973;DHT22;5027;53.560;10.062;2023-08-31T09:58:23;19.20;99.90
9973;DHT22;5027;53.560;10.062;2023-08-31T10:00:51;19.20;99.90
9973;DHT22;5027;53.560;10.062;2023-08-31T10:03:20;19.10;99.90
9973;DHT22;5027;53.560;10.062;2023-08-31T10:05:48;19.10;99.90
9973;DHT22;5027;53.560;10.062;2023-08-31T10:08:16;19.10;99.90
9973;DHT22;5027;53.560;10.062;2023-08-31T10:10:44;19.00;99.90
9973;DHT22;5027;53.560;10.062;2023-08-31T10:13:11;19.10;99.90
9973;DHT22;5027;53.560;10.062;2023-08-31T10:15:39;19.20;99.90
9973;DHT22;5027;53.560;10.062;2023-08-31T10:18:07;19.20;99.90
9973;DHT22;5027;53.560;10.062;2023-08-31T10:20:35;19.00;99.90
9973;DHT22;5027;53.560;10.062;2023-08-31T10:23:06;18.90;99.90
9973;DHT22;5027;53.560;10.062;2023-08-31T10:28:23;19.10;99.90
9973;DHT22;5027;53.560;10.062;2023-08-31T10:31:03;19.30;99.90
9973;DHT22;5027;53.560;10.062;2023-08-31T10:33:40;19.50;99.90
9973;DHT22;5027;53.560;10.062;2023-08-31T10:36:16;19.60;99.90
9973;DHT22;5027;53.560;10.062;2023-08-31T10:41:23;19.80;99.90
9973;DHT22;5027;53.560;10.062;2023-08-31T10:43:55;19.90;99.90
9973;DHT22;5027;53.560;10.062;2023-08-31T10:49:00;19.60;99.90
9973;DHT22;5027;53.560;10.062;2023-08-31T10:51:30;19.70;99.90
9973;DHT22;5027;53.560;10.062;2023-08-31T10:54:08;19.80;99.90
9973;DHT22;5027;53.560;10.062;2023-08-31T10:59:24;19.80;99.90
9973;DHT22;5027;53.560;10.062;2023-08-31T11:04:59;19.80;99.90
9973;DHT22;5027;53.560;10.062;2023-08-31T11:07:27;19.80;99.90
9973;DHT22;5027;53.560;10.062;2023-08-31T11:10:20;19.90;99.90
9973;DHT22;5027;53.560;10.062;2023-08-31T11:12:48;19.90;99.90
9973;DHT22;5027;53.560;10.062;2023-08-31T11:15:17;20.00;99.90
9973;DHT22;5027;53.560;10.062;2023-08-31T11:17:45;20.10;99.90
9973;DHT22;5027;53.560;10.062;2023-08-31T11:20:15;20.20;99.90
9973;DHT22;5027;53.560;10.062;2023-08-31T11:22:46;20.10;99.90
9973;DHT22;5027;53.560;10.062;2023-08-31T11:25:13;20.10;99.90
9973;DHT22;5027;53.560;10.062;2023-08-31T11:27:40;20.20;99.90
9973;DHT22;5027;53.560;10.062;2023-08-31T11:30:16;20.20;99.90
9973;DHT22;5027;53.560;10.062;2023-08-31T11:32:51;20.30;99.90
9973;DHT22;5027;53.560;10.062;2023-08-31T11:35:19;20.40;99.90
9973;DHT22;5027;53.560;10.062;2023-08-31T11:37:50;20.50;99.90
9973;DHT22;5027;53.560;10.062;2023-08-31T11:40:18;20.60;99.90
9973;DHT22;5027;53.560;10.062;2023-08-31T11:42:45;20.60;99.90
9973;DHT22;5027;53.560;10.062;2023-08-31T11:45:14;20.60;99.90
9973;DHT22;5027;53.560;10.062;2023-08-31T11:47:42;20.60;99.90
9973;DHT22;5027;53.560;10.062;2023-08-31T11:50:14;20.70;99.90
9973;DHT22;5027;53.560;10.062;2023-08-31T11:52:42;20.70;99.90
9973;DHT22;5027;53.560;10.062;2023-08-31T11:55:13;20.70;99.90
9973;DHT22;5027;53.560;10.062;2023-08-31T11:57:47;20.70;99.90
9973;DHT22;5027;53.560;10.062;2023-08-31T12:00:18;20.80;99.90
9973;DHT22;5027;53.560;10.062;2023-08-31T12:02:55;20.80;99.90
9973;DHT22;5027;53.560;10.062;2023-08-31T12:05:22;20.90;99.90
9973;DHT22;5027;53.560;10.062;2023-08-31T12:07:49;20.90;99.90
9973;DHT22;5027;53.560;10.062;2023-08-31T12:10:17;20.70;99.90
9973;DHT22;5027;53.560;10.062;2023-08-31T12:12:44;20.70;99.90
9973;DHT22;5027;53.560;10.062;2023-08-31T12:15:11;20.70;99.90
9973;DHT22;5027;53.560;10.062;2023-08-31T12:17:38;20.80;99.90
9973;DHT22;5027;53.560;10.062;2023-08-31T12:20:06;20.70;99.90
9973;DHT22;5027;53.560;10.062;2023-08-31T12:22:33;20.80;99.90
9973;DHT22;5027;53.560;10.062;2023-08-31T12:25:01;20.70;99.90
9973;DHT22;5027;53.560;10.062;2023-08-31T12:27:28;20.80;99.90
9973;DHT22;5027;53.560;10.062;2023-08-31T12:29:56;20.80;99.90
9973;DHT22;5027;53.560;10.062;2023-08-31T12:32:24;20.80;99.90
9973;DHT22;5027;53.560;10.062;2023-08-31T12:34:51;20.70;99.90
9973;DHT22;5027;53.560;10.062;2023-08-31T12:37:18;20.70;99.90
9973;DHT22;5027;53.560;10.062;2023-08-31T12:39:45;20.70;99.90
9973;DHT22;5027;53.560;10.062;2023-08-31T12:42:12;20.70;99.90
9973;DHT22;5027;53.560;10.062;2023-08-31T12:44:49;20.70;99.90
9973;DHT22;5027;53.560;10.062;2023-08-31T12:47:16;20.70;99.90
9973;DHT22;5027;53.560;10.062;2023-08-31T12:49:42;20.70;99.90
9973;DHT22;5027;53.560;10.062;2023-08-31T12:52:09;20.60;99.90
9973;DHT22;5027;53.560;10.062;2023-08-31T12:54:36;20.50;99.90
9973;DHT22;5027;53.560;10.062;2023-08-31T12:57:03;20.30;99.90
9973;DHT22;5027;53.560;10.062;2023-08-31T12:59:29;20.20;99.90
9973;DHT22;5027;53.560;10.062;2023-08-31T13:01:56;20.00;99.90
9973;DHT22;5027;53.560;10.062;2023-08-31T13:04:24;19.90;99.90
9973;DHT22;5027;53.560;10.062;2023-08-31T13:06:51;19.90;99.90
9973;DHT22;5027;53.560;10.062;2023-08-31T13:09:17;19.80;99.90
9973;DHT22;5027;53.560;10.062;2023-08-31T13:11:44;19.80;99.90
9973;DHT22;5027;53.560;10.062;2023-08-31T13:14:11;19.80;99.90
9973;DHT22;5027;53.560;10.062;2023-08-31T13:16:38;19.90;99.90
9973;DHT22;5027;53.560;10.062;2023-08-31T13:19:07;20.00;99.90
9973;DHT22;5027;53.560;10.062;2023-08-31T13:21:33;20.00;99.90
9973;DHT22;5027;53.560;10.062;2023-08-31T13:24:00;20.10;99.90
9973;DHT22;5027;53.560;10.062;2023-08-31T13:26:30;20.20;99.90
9973;DHT22;5027;53.560;10.062;2023-08-31T13:28:57;20.40;99.90
9973;DHT22;5027;53.560;10.062;2023-08-31T13:31:24;20.40;99.90
9973;DHT22;5027;53.560;10.062;2023-08-31T13:33:50;20.50;99.90
9973;DHT22;5027;53.560;10.062;2023-08-31T13:36:17;20.60;99.90
9973;DHT22;5027;53.560;10.062;2023-08-31T13:38:44;20.70;99.90
9973;DHT22;5027;53.560;10.062;2023-08-31T13:41:11;20.70;99.90
9973;DHT22;5027;53.560;10.062;2023-08-31T13:43:38;20.80;99.90
9973;DHT22;5027;53.560;10.062;2023-08-31T13:46:05;20.80;99.90
9973;DHT22;5027;53.560;10.062;2023-08-31T13:48:31;20.80;99.90
9973;DHT22;5027;53.560;10.062;2023-08-31T13:50:59;20.80;99.90
9973;DHT22;5027;53.560;10.062;2023-08-31T13:53:26;20.80;99.90
9973;DHT22;5027;53.560;10.062;2023-08-31T13:55:53;20.80;99.90
9973;DHT22;5027;53.560;10.062;2023-08-31T13:58:19;20.90;99.90
9973;DHT22;5027;53.560;10.062;2023-08-31T14:00:46;20.90;99.90
9973;DHT22;5027;53.560;10.062;2023-08-31T14:03:13;20.90;99.90
9973;DHT22;5027;53.560;10.062;2023-08-31T14:05:40;20.90;99.90
9973;DHT22;5027;53.560;10.062;2023-08-31T14:08:06;20.90;99.90
9973;DHT22;5027;53.560;10.062;2023-08-31T14:10:33;20.90;99.90
9973;DHT22;5027;53.560;10.062;2023-08-31T14:13:00;20.90;99.90
9973;DHT22;5027;53.560;10.062;2023-08-31T14:15:27;20.90;99.90
9973;DHT22;5027;53.560;10.062;2023-08-31T14:17:54;20.90;99.90
9973;DHT22;5027;53.560;10.062;2023-08-31T14:20:21;20.90;99.90
9973;DHT22;5027;53.560;10.062;2023-08-31T14:22:47;20.90;99.90
9973;DHT22;5027;53.560;10.062;2023-08-31T14:25:14;20.90;99.90
9973;DHT22;5027;53.560;10.062;2023-08-31T14:27:41;20.90;99.90
9973;DHT22;5027;53.560;10.062;2023-08-31T14:30:09;20.80;99.90
9973;DHT22;5027;53.560;10.062;2023-08-31T14:32:35;20.80;99.90
9973;DHT22;5027;53.560;10.062;2023-08-31T14:35:02;20.80;99.90
9973;DHT22;5027;53.560;10.062;2023-08-31T14:37:31;20.80;99.90
9973;DHT22;5027;53.560;10.062;2023-08-31T14:39:57;20.80;99.90
9973;DHT22;5027;53.560;10.062;2023-08-31T14:42:25;20.80;99.90
9973;DHT22;5027;53.560;10.062;2023-08-31T14:44:52;20.80;99.90
9973;DHT22;5027;53.560;10.062;2023-08-31T14:47:19;20.80;99.90
9973;DHT22;5027;53.560;10.062;2023-08-31T14:49:46;20.80;99.90
9973;DHT22;5027;53.560;10.062;2023-08-31T14:52:13;20.80;99.90
9973;DHT22;5027;53.560;10.062;2023-08-31T14:54:40;20.80;99.90
9973;DHT22;5027;53.560;10.062;2023-08-31T14:57:06;20.80;99.90
9973;DHT22;5027;53.560;10.062;2023-08-31T14:59:33;20.80;99.90
9973;DHT22;5027;53.560;10.062;2023-08-31T15:02:00;20.80;99.90
9973;DHT22;5027;53.560;10.062;2023-08-31T15:04:32;20.80;99.90
9973;DHT22;5027;53.560;10.062;2023-08-31T15:06:59;20.70;99.90
9973;DHT22;5027;53.560;10.062;2023-08-31T15:09:26;20.70;99.90
9973;DHT22;5027;53.560;10.062;2023-08-31T15:11:53;20.70;99.90
9973;DHT22;5027;53.560;10.062;2023-08-31T15:14:20;20.80;99.90
9973;DHT22;5027;53.560;10.062;2023-08-31T15:16:47;20.80;99.90
9973;DHT22;5027;53.560;10.062;2023-08-31T15:19:16;20.80;99.90
9973;DHT22;5027;53.560;10.062;2023-08-31T15:21:45;20.80;99.90
9973;DHT22;5027;53.560;10.062;2023-08-31T15:24:15;20.80;99.90
9973;DHT22;5027;53.560;10.062;2023-08-31T15:26:41;20.70;99.90
9973;DHT22;5027;53.560;10.062;2023-08-31T15:29:11;20.60;99.90
9973;DHT22;5027;53.560;10.062;2023-08-31T15:31:38;20.70;99.90
9973;DHT22;5027;53.560;10.062;2023-08-31T15:34:05;20.70;99.90
9973;DHT22;5027;53.560;10.062;2023-08-31T15:36:32;20.70;99.90
9973;DHT22;5027;53.560;10.062;2023-08-31T15:38:59;20.70;99.90
9973;DHT22;5027;53.560;10.062;2023-08-31T15:41:25;20.70;99.90
9973;DHT22;5027;53.560;10.062;2023-08-31T15:43:52;20.70;99.90
9973;DHT22;5027;53.560;10.062;2023-08-31T15:46:19;20.70;99.90
9973;DHT22;5027;53.560;10.062;2023-08-31T15:48:48;20.70;99.90
9973;DHT22;5027;53.560;10.062;2023-08-31T15:51:16;20.70;99.90
9973;DHT22;5027;53.560;10.062;2023-08-31T15:53:42;20.70;99.90
9973;DHT22;5027;53.560;10.062;2023-08-31T15:56:09;20.70;99.90
9973;DHT22;5027;53.560;10.062;2023-08-31T15:58:36;20.70;99.90
9973;DHT22;5027;53.560;10.062;2023-08-31T16:01:03;20.70;99.90
9973;DHT22;5027;53.560;10.062;2023-08-31T16:03:35;20.80;99.90
9973;DHT22;5027;53.560;10.062;2023-08-31T16:06:01;20.70;99.90
9973;DHT22;5027;53.560;10.062;2023-08-31T16:08:28;20.80;99.90
9973;DHT22;5027;53.560;10.062;2023-08-31T16:10:55;20.70;99.90
9973;DHT22;5027;53.560;10.062;2023-08-31T16:13:23;20.70;99.90
9973;DHT22;5027;53.560;10.062;2023-08-31T16:15:50;20.80;99.90
9973;DHT22;5027;53.560;10.062;2023-08-31T16:18:17;20.70;99.90
9973;DHT22;5027;53.560;10.062;2023-08-31T16:20:44;20.60;99.90